Time;durP1;ratioP1;P1;durP2;ratioP2;P2;SDS_P1;SDS_P2;PMS_P1;PMS_P2;Temp;Humidity;BMP_temperature;BMP_pressure;BME280_temperature;BME280_humidity;BME280_pressure;Samples;Min_cycle;Max_cycle;Signal;HPM_P1;HPM_P2
2022/06/16 00:03:22;;;;;;;3.42;2.10;;;21.60;57.80;;;;;;10412233;28;20113;-58
2022/06/16 00:08:23;;;;;;;1.95;1.52;;;21.60;57.90;;;;;;10410779;28;20029;-59
2022/06/16 00:13:23;;;;;;;2.88;2.05;;;21.50;57.80;;;;;;10416197;28;20033;-59
2022/06/16 00:18:25;;;;;;;3.03;2.13;;;21.60;57.80;;;;;;10418829;28;20117;-58
2022/06/16 00:23:25;;;;;;;4.22;2.00;;;21.50;57.80;;;;;;10418733;28;20378;-58
2022/06/16 00:28:26;;;;;;;3.22;2.35;;;21.60;57.70;;;;;;10418394;28;20041;-58
2022/06/16 00:33:27;;;;;;;2.90;1.98;;;21.50;57.70;;;;;;10419209;28;20054;-58
2022/06/16 00:38:27;;;;;;;2.97;2.00;;;21.50;57.90;;;;;;10418917;28;20029;-59
2022/06/16 00:43:28;;;;;;;2.15;1.92;;;21.50;57.90;;;;;;10417907;28;20487;-59
2022/06/16 00:48:49;;;;;;;2.10;1.63;;;21.50;57.70;;;;;;10420444;28;20055;-58
2022/06/16 00:53:50;;;;;;;2.90;2.20;;;21.50;57.90;;;;;;10418058;28;20029;-59
2022/06/16 00:58:58;;;;;;;2.97;1.83;;;21.50;57.80;;;;;;10400853;28;20458;-58
2022/06/16 01:09:27;;;;;;;2.83;2.20;;;21.50;57.90;;;;;;10417377;28;20473;-58
2022/06/16 01:15:00;;;;;;;2.03;1.80;;;21.50;57.90;;;;;;10416756;28;20033;-59
2022/06/16 01:20:50;;;;;;;2.42;2.20;;;21.50;57.90;;;;;;10432990;28;20553;-59
2022/06/16 01:26:37;;;;;;;2.45;1.90;;;21.50;57.80;;;;;;10416656;28;20037;-59
2022/06/16 01:32:19;;;;;;;2.63;1.95;;;21.50;57.60;;;;;;10415965;28;20155;-59
2022/06/16 01:37:53;;;;;;;2.50;2.00;;;21.50;57.60;;;;;;10415750;28;20049;-58
2022/06/16 01:42:59;;;;;;;4.00;1.95;;;21.50;57.80;;;;;;10403504;28;20056;-59
2022/06/16 01:48:01;;;;;;;2.35;1.75;;;21.50;57.90;;;;;;10416911;28;20041;-59
2022/06/16 01:53:11;;;;;;;2.50;1.83;;;21.50;57.90;;;;;;10412817;28;20049;-59
2022/06/16 01:58:31;;;;;;;3.63;2.17;;;21.50;57.90;;;;;;10413566;28;20029;-58
2022/06/16 02:03:38;;;;;;;;;;;21.50;57.90;;;;;;10414553;28;20034;-58
2022/06/16 02:08:46;;;;;;;3.08;2.10;;;21.40;57.60;;;;;;10429537;28;19913;-58
2022/06/16 02:14:26;;;;;;;2.50;2.10;;;21.40;57.80;;;;;;10414492;28;20109;-58
2022/06/16 02:19:27;;;;;;;;;;;21.40;57.80;;;;;;10416205;28;20359;-59
2022/06/16 02:24:30;;;;;;;3.53;2.15;;;21.40;57.60;;;;;;10429533;28;19921;-59
2022/06/16 02:29:37;;;;;;;2.35;1.85;;;21.40;57.80;;;;;;10413732;28;20421;-59
2022/06/16 02:35:07;;;;;;;2.40;2.00;;;21.40;57.80;;;;;;10412643;28;20130;-59
2022/06/16 02:40:42;;;;;;;2.83;1.77;;;21.40;57.80;;;;;;10412615;28;20374;-58
2022/06/16 02:46:07;;;;;;;4.97;2.10;;;21.40;57.80;;;;;;10420294;28;20033;-59
2022/06/16 02:51:35;;;;;;;2.20;1.85;;;21.40;57.70;;;;;;10387054;28;20761;-59
2022/06/16 02:56:56;;;;;;;2.53;1.70;;;21.40;57.60;;;;;;10388622;28;20502;-58
2022/06/16 03:02:09;;;;;;;2.92;2.22;;;21.40;57.60;;;;;;10412538;28;20512;-59
2022/06/16 03:07:15;;;;;;;2.53;1.70;;;21.40;57.60;;;;;;10412451;28;20044;-58
2022/06/16 03:12:16;;;;;;;3.80;1.70;;;21.40;57.60;;;;;;10410592;28;20033;-58
2022/06/16 03:17:17;;;;;;;2.45;2.13;;;21.40;57.60;;;;;;10408794;28;20493;-59
2022/06/16 03:22:18;;;;;;;3.83;2.00;;;21.40;57.60;;;;;;10412605;28;20033;-58
2022/06/16 03:27:18;;;;;;;1.92;1.73;;;21.30;57.40;;;;;;10412881;28;20037;-58
2022/06/16 03:32:19;;;;;;;1.90;1.60;;;21.30;57.40;;;;;;10411606;28;20049;-58
2022/06/16 03:37:23;;;;;;;2.25;2.00;;;21.30;57.40;;;;;;10427872;28;20077;-59
2022/06/16 03:42:23;;;;;;;2.78;2.00;;;21.30;57.40;;;;;;10399452;28;20144;-58
2022/06/16 03:47:24;;;;;;;2.35;1.67;;;21.30;57.30;;;;;;10416296;28;20206;-58
2022/06/16 03:52:25;;;;;;;2.65;2.20;;;21.30;57.40;;;;;;10427265;28;20481;-59
2022/06/16 03:57:26;;;;;;;2.53;1.92;;;21.30;57.40;;;;;;10424891;28;20397;-58
2022/06/16 04:02:27;;;;;;;2.53;2.00;;;21.30;57.40;;;;;;10425868;28;20083;-59
2022/06/16 04:07:28;;;;;;;3.30;1.83;;;21.30;57.40;;;;;;10425637;28;20029;-58
2022/06/16 04:12:29;;;;;;;2.33;1.73;;;21.30;57.40;;;;;;10431336;28;20029;-58
2022/06/16 04:17:30;;;;;;;4.00;2.20;;;21.30;57.40;;;;;;10424922;28;20104;-58
2022/06/16 04:22:32;;;;;;;2.67;2.10;;;21.30;57.40;;;;;;10420031;28;20438;-58
2022/06/16 04:27:33;;;;;;;3.25;2.80;;;21.30;57.40;;;;;;10414191;28;20037;-58
2022/06/16 04:32:34;;;;;;;3.15;2.28;;;21.20;57.30;;;;;;10425346;28;20045;-58
2022/06/16 04:37:34;;;;;;;4.60;2.50;;;21.30;57.40;;;;;;10425921;28;20040;-58
2022/06/16 04:42:35;;;;;;;3.83;2.05;;;21.20;57.90;;;;;;10438785;28;20056;-56
2022/06/16 04:47:37;;;;;;;5.93;2.78;;;21.30;58.00;;;;;;10441597;28;20030;-58
2022/06/16 04:52:38;;;;;;;7.20;2.97;;;21.40;57.80;;;;;;10427484;28;20474;-57
2022/06/16 04:57:39;;;;;;;6.38;4.00;;;21.40;58.40;;;;;;10423928;28;20032;-58
2022/06/16 05:02:40;;;;;;;5.15;2.65;;;21.40;58.50;;;;;;10418231;28;20029;-59
2022/06/16 05:07:41;;;;;;;4.85;2.40;;;21.40;59.00;;;;;;10417057;28;20466;-57
2022/06/16 05:12:42;;;;;;;7.93;2.60;;;21.40;58.40;;;;;;10416828;28;20037;-57
2022/06/16 05:17:42;;;;;;;8.18;2.88;;;21.40;58.50;;;;;;10417102;28;20025;-57
2022/06/16 05:22:43;;;;;;;11.00;3.25;;;21.40;58.60;;;;;;10417552;28;20041;-58
2022/06/16 05:27:43;;;;;;;6.15;3.25;;;21.40;58.60;;;;;;10411203;28;20072;-59
2022/06/16 05:32:44;;;;;;;10.23;3.28;;;21.40;58.70;;;;;;10415561;28;20034;-60
2022/06/16 05:37:45;;;;;;;7.93;4.07;;;21.40;58.70;;;;;;10415391;28;20040;-59
2022/06/16 05:42:46;;;;;;;10.25;3.25;;;21.40;58.70;;;;;;10413688;28;20117;-59
2022/06/16 05:47:47;;;;;;;12.18;3.08;;;21.40;58.70;;;;;;10416624;28;20041;-59
2022/06/16 05:52:48;;;;;;;13.68;3.70;;;21.40;58.60;;;;;;10398432;28;20082;-60
2022/06/16 05:57:49;;;;;;;9.05;2.90;;;21.40;58.80;;;;;;10415418;28;20030;-60
2022/06/16 06:02:53;;;;;;;9.13;3.17;;;21.40;58.70;;;;;;10405167;28;20026;-59
2022/06/16 06:18:33;;;;;;;13.25;3.33;;;21.40;58.70;;;;;;10415352;28;19909;-59
2022/06/16 06:23:33;;;;;;;10.20;3.90;;;21.40;58.70;;;;;;10414120;28;20537;-59
2022/06/16 06:28:34;;;;;;;10.02;3.50;;;21.40;58.70;;;;;;10413631;28;20112;-58
2022/06/16 06:33:35;;;;;;;8.57;3.05;;;21.30;58.70;;;;;;10413025;28;20057;-58
2022/06/16 06:38:35;;;;;;;4.22;2.25;;;21.30;58.90;;;;;;10414640;28;20025;-58
2022/06/16 06:43:36;;;;;;;8.77;2.95;;;21.30;59.10;;;;;;10415984;28;20500;-58
2022/06/16 06:48:37;;;;;;;11.05;3.17;;;21.30;58.90;;;;;;10413217;28;20049;-59
2022/06/16 06:53:38;;;;;;;5.13;2.42;;;21.30;58.50;;;;;;10410721;28;20025;-59
2022/06/16 06:58:39;;;;;;;6.60;3.28;;;21.30;58.30;;;;;;10411842;28;20037;-59
2022/06/16 07:03:39;;;;;;;5.53;2.40;;;21.40;58.10;;;;;;10395080;28;20025;-59
2022/06/16 07:08:40;;;;;;;6.85;2.47;;;21.40;58.20;;;;;;10409425;28;20061;-59
2022/06/16 07:13:41;;;;;;;7.57;2.95;;;21.40;58.20;;;;;;10410215;28;20485;-59
2022/06/16 07:18:42;;;;;;;5.47;2.47;;;21.40;58.20;;;;;;10410697;28;20393;-59
2022/06/16 07:23:43;;;;;;;4.03;2.55;;;21.40;58.30;;;;;;10412477;28;20401;-59
2022/06/16 07:28:44;;;;;;;5.68;2.20;;;21.40;58.20;;;;;;10412870;28;20035;-58
2022/06/16 07:33:44;;;;;;;5.35;2.67;;;21.40;58.20;;;;;;10411059;28;20059;-59
2022/06/16 07:38:46;;;;;;;4.38;2.10;;;21.40;58.00;;;;;;10411501;28;20067;-58
2022/06/16 07:43:47;;;;;;;5.03;2.72;;;21.50;58.10;;;;;;10399157;28;20029;-59
2022/06/16 07:48:48;;;;;;;6.18;1.85;;;21.50;58.10;;;;;;10414204;28;20057;-59
2022/06/16 07:53:49;;;;;;;5.22;2.15;;;21.50;58.20;;;;;;10411413;28;20040;-59
2022/06/16 07:58:50;;;;;;;4.25;1.92;;;21.50;58.10;;;;;;10411221;28;20497;-59
2022/06/16 08:03:50;;;;;;;5.88;2.08;;;21.50;58.00;;;;;;10427320;28;20041;-59
2022/06/16 08:08:51;;;;;;;5.38;2.10;;;21.50;58.10;;;;;;10411975;28;20422;-58
2022/06/16 08:13:52;;;;;;;4.13;2.35;;;21.50;57.90;;;;;;10412275;28;20108;-58
2022/06/16 08:18:53;;;;;;;5.15;1.85;;;21.50;58.20;;;;;;10410562;28;20546;-59
2022/06/16 08:23:53;;;;;;;3.70;1.50;;;21.50;58.20;;;;;;10410322;28;20393;-59
2022/06/16 08:28:57;;;;;;;3.88;2.03;;;21.50;58.00;;;;;;10411938;28;20052;-58
2022/06/16 08:33:58;;;;;;;3.83;2.00;;;21.50;58.20;;;;;;10412258;28;20053;-59
2022/06/16 08:38:59;;;;;;;4.60;2.17;;;21.50;58.00;;;;;;10418076;28;20034;-58
2022/06/16 08:44:14;;;;;;;4.18;1.95;;;21.50;58.20;;;;;;10419148;28;20030;-58
2022/06/16 08:49:42;;;;;;;4.55;2.05;;;21.50;57.90;;;;;;10420640;28;20107;-59
2022/06/16 08:55:00;;;;;;;2.85;1.50;;;21.60;58.30;;;;;;10417619;28;20091;-59
2022/06/16 09:00:09;;;;;;;3.42;1.90;;;21.60;58.30;;;;;;10417239;28;20028;-59
2022/06/16 09:05:40;;;;;;;2.80;1.90;;;21.60;58.20;;;;;;10418272;28;20041;-59
2022/06/16 09:11:18;;;;;;;2.10;1.80;;;21.60;58.40;;;;;;10416950;28;20057;-58
2022/06/16 09:16:46;;;;;;;3.38;1.70;;;21.60;58.40;;;;;;10417850;28;20064;-59
2022/06/16 09:22:33;;;;;;;5.25;2.08;;;21.60;58.20;;;;;;10418085;28;20026;-58
2022/06/16 09:27:55;;;;;;;3.10;1.75;;;21.60;58.30;;;;;;10416415;28;20386;-59
2022/06/16 09:33:13;;;;;;;2.83;1.98;;;21.60;58.50;;;;;;10416217;28;20037;-58
2022/06/16 09:38:54;;;;;;;1.98;1.40;;;21.60;58.40;;;;;;10417080;28;20104;-58
2022/06/16 09:43:58;;;;;;;3.28;1.75;;;21.60;58.60;;;;;;10415093;28;20045;-59
2022/06/16 09:49:20;;;;;;;3.40;1.75;;;21.60;58.40;;;;;;10419672;28;20057;-59
2022/06/16 09:54:29;;;;;;;2.15;1.50;;;21.60;58.50;;;;;;10416235;28;20072;-59
2022/06/16 09:59:43;;;;;;;2.78;2.08;;;21.60;58.60;;;;;;10415534;28;20029;-59
2022/06/16 10:04:46;;;;;;;2.47;1.80;;;21.60;58.50;;;;;;10414654;28;20033;-59
2022/06/16 10:10:05;;;;;;;2.65;1.95;;;21.60;58.60;;;;;;10414384;28;20083;-59
2022/06/16 10:15:34;;;;;;;2.22;1.52;;;21.60;58.70;;;;;;10415787;28;20033;-59
2022/06/16 10:20:34;;;;;;;3.03;1.35;;;21.70;58.60;;;;;;10414835;28;20032;-58
2022/06/16 10:25:43;;;;;;;5.60;1.58;;;21.70;58.70;;;;;;10413716;28;20450;-58
2022/06/16 10:30:44;;;;;;;;;;;21.70;58.60;;;;;;10415528;28;20108;-59
2022/06/16 10:36:03;;;;;;;2.55;1.60;;;21.70;58.80;;;;;;10414648;28;19921;-59
2022/06/16 10:41:43;;;;;;;3.63;2.33;;;21.70;58.90;;;;;;10413781;28;20025;-59
2022/06/16 10:46:59;;;;;;;3.33;1.73;;;21.70;58.60;;;;;;10362644;28;20413;-59
2022/06/16 10:52:21;;;;;;;2.42;2.00;;;21.70;58.30;;;;;;10415336;28;20231;-59
2022/06/16 10:57:27;;;;;;;3.25;1.65;;;21.70;58.30;;;;;;10413297;28;20117;-59
2022/06/16 11:02:32;;;;;;;2.63;1.50;;;21.80;58.60;;;;;;10413734;28;20057;-60
2022/06/16 11:07:43;;;;;;;2.13;1.55;;;21.80;58.70;;;;;;10412276;28;20438;-59
2022/06/16 11:12:47;;;;;;;2.63;1.77;;;21.80;58.50;;;;;;10412485;28;20382;-59
2022/06/16 11:17:54;;;;;;;1.88;1.42;;;21.80;58.70;;;;;;10395383;28;20025;-59
2022/06/16 11:22:57;;;;;;;2.22;1.48;;;21.90;58.70;;;;;;10412129;28;20033;-59
2022/06/16 11:28:05;;;;;;;1.83;1.17;;;21.90;58.60;;;;;;10411664;28;20497;-58
2022/06/16 11:39:43;;;;;;;2.08;1.58;;;21.90;58.70;;;;;;10412161;28;20045;-59
2022/06/16 11:44:59;;;;;;;2.47;1.98;;;21.90;58.70;;;;;;10411335;28;20033;-59
2022/06/16 11:50:41;;;;;;;2.45;1.50;;;22.00;58.80;;;;;;10413934;28;20405;-59
2022/06/16 11:55:55;;;;;;;2.05;1.80;;;22.00;58.80;;;;;;10409192;28;20045;-60
2022/06/16 12:01:07;;;;;;;4.32;1.80;;;22.00;58.80;;;;;;10410638;28;20025;-59
2022/06/16 12:06:50;;;;;;;2.50;1.48;;;22.00;58.80;;;;;;10411017;28;20103;-59
2022/06/16 12:12:19;;;;;;;2.78;1.50;;;22.00;58.90;;;;;;10419899;28;20373;-59
2022/06/16 12:17:55;;;;;;;3.25;1.50;;;22.00;58.90;;;;;;10418678;28;20486;-59
2022/06/16 12:23:34;;;;;;;2.22;1.80;;;22.00;59.00;;;;;;10418843;28;20036;-59
2022/06/16 12:28:55;;;;;;;1.73;1.48;;;22.00;58.90;;;;;;10419198;28;20076;-59
2022/06/16 12:34:41;;;;;;;3.55;1.63;;;22.00;59.00;;;;;;10434907;28;20057;-59
2022/06/16 12:39:57;;;;;;;2.70;1.52;;;22.00;59.00;;;;;;10418907;28;20029;-59
2022/06/16 12:45:10;;;;;;;2.50;1.42;;;22.10;59.00;;;;;;10404937;28;20037;-59
2022/06/16 12:50:17;;;;;;;3.00;1.77;;;22.10;59.00;;;;;;10420633;28;20030;-59
2022/06/16 12:56:08;;;;;;;2.30;1.70;;;22.10;58.90;;;;;;10417068;28;20044;-59
2022/06/16 13:01:13;;;;;;;3.30;1.73;;;22.10;59.00;;;;;;10417482;28;20433;-60
2022/06/16 13:06:16;;;;;;;2.00;1.40;;;22.10;59.00;;;;;;10418766;28;20476;-58
2022/06/16 13:11:28;;;;;;;2.35;1.67;;;22.10;58.90;;;;;;10416990;28;20082;-59
2022/06/16 13:16:32;;;;;;;1.77;1.45;;;22.10;59.20;;;;;;10433192;28;20026;-59
2022/06/16 13:21:42;;;;;;;1.98;1.70;;;22.10;59.30;;;;;;10415588;28;20036;-59
2022/06/16 13:27:00;;;;;;;2.95;2.10;;;22.10;59.30;;;;;;10416899;28;20036;-59
2022/06/16 13:32:03;;;;;;;2.22;1.75;;;22.10;59.30;;;;;;10416398;28;20033;-59
2022/06/16 13:37:04;;;;;;;2.65;1.98;;;22.10;59.00;;;;;;10415641;28;20565;-59
2022/06/16 13:42:17;;;;;;;2.05;1.60;;;22.10;59.20;;;;;;10399005;28;20036;-58
2022/06/16 13:47:20;;;;;;;2.35;1.67;;;22.10;59.20;;;;;;10416071;28;20061;-59
2022/06/16 13:52:30;;;;;;;2.45;1.95;;;22.10;59.10;;;;;;10417970;28;20030;-59
2022/06/16 13:57:33;;;;;;;3.17;1.85;;;22.10;59.20;;;;;;10416329;28;20033;-58
2022/06/16 14:02:58;;;;;;;3.42;1.80;;;22.10;59.30;;;;;;10415136;28;20118;-59
2022/06/16 14:08:07;;;;;;;2.83;2.00;;;22.10;59.30;;;;;;10414808;28;20108;-59
2022/06/16 14:13:11;;;;;;;;;;;22.10;58.90;;;;;;10415048;28;20033;-59
2022/06/16 14:18:54;;;;;;;2.80;1.42;;;22.10;59.20;;;;;;10430702;28;19909;-59
2022/06/16 14:24:08;;;;;;;3.25;1.90;;;22.10;59.30;;;;;;10430622;28;20045;-59
2022/06/16 14:29:16;;;;;;;3.00;1.67;;;22.10;59.50;;;;;;10413637;28;20028;-60
2022/06/16 14:34:46;;;;;;;3.00;1.70;;;22.10;59.60;;;;;;10413704;28;20045;-58
2022/06/16 14:40:22;;;;;;;2.38;1.88;;;22.00;59.60;;;;;;10413632;28;20485;-59
2022/06/16 14:45:34;;;;;;;3.28;1.73;;;22.00;59.60;;;;;;10403418;28;20040;-59
2022/06/16 14:50:59;;;;;;;2.47;1.80;;;22.00;59.50;;;;;;10416532;28;20037;-59
2022/06/16 14:56:08;;;;;;;2.85;2.08;;;22.00;59.40;;;;;;10412709;28;20151;-58
2022/06/16 15:01:09;;;;;;;2.72;1.77;;;22.00;59.40;;;;;;10406607;28;20069;-59
2022/06/16 15:06:12;;;;;;;2.20;1.42;;;22.10;59.40;;;;;;10409783;28;20039;-58
2022/06/16 15:11:22;;;;;;;2.45;1.55;;;22.00;59.60;;;;;;10408264;28;20176;-59
2022/06/16 15:21:46;;;;;;;2.45;1.48;;;22.00;59.40;;;;;;10413453;28;20076;-59
2022/06/16 15:26:57;;;;;;;2.35;1.77;;;22.00;59.40;;;;;;10413843;28;20068;-59
2022/06/16 15:32:04;;;;;;;2.05;1.55;;;22.00;59.20;;;;;;10413287;28;20494;-59
2022/06/16 15:37:07;;;;;;;2.10;1.80;;;22.00;59.50;;;;;;10412097;28;20104;-59
2022/06/16 15:42:18;;;;;;;3.10;2.13;;;22.00;59.20;;;;;;10409296;28;20120;-59
2022/06/16 15:47:23;;;;;;;3.40;2.22;;;22.00;59.30;;;;;;10411728;28;20076;-59
2022/06/16 15:52:33;;;;;;;4.15;2.05;;;22.00;59.30;;;;;;10414806;28;20057;-59
2022/06/16 15:57:36;;;;;;;3.15;2.30;;;22.00;59.40;;;;;;10410906;28;20053;-59
2022/06/16 16:02:39;;;;;;;3.63;1.95;;;22.00;59.70;;;;;;10410707;28;20090;-59
2022/06/16 16:07:41;;;;;;;3.95;1.67;;;22.10;60.00;;;;;;10410288;28;20034;-58
2022/06/16 16:13:10;;;;;;;4.13;2.58;;;22.30;60.30;;;;;;10405592;28;20120;-58
2022/06/16 16:18:24;;;;;;;6.80;2.15;;;22.50;59.20;;;;;;10411727;28;20363;-58
2022/06/16 16:23:43;;;;;;;3.95;2.10;;;22.50;58.90;;;;;;10412101;28;20036;-58
2022/06/16 16:28:56;;;;;;;3.88;2.85;;;22.40;59.70;;;;;;10411281;28;20454;-58
2022/06/16 16:34:03;;;;;;;4.20;2.03;;;22.40;59.30;;;;;;10407883;28;20452;-58
2022/06/16 16:39:34;;;;;;;4.05;2.47;;;22.30;59.60;;;;;;10412259;28;20030;-58
2022/06/16 16:44:39;;;;;;;2.10;1.67;;;22.30;59.40;;;;;;10411367;28;20598;-57
2022/06/16 16:49:58;;;;;;;2.75;2.25;;;22.30;59.60;;;;;;10409904;28;20503;-58
2022/06/16 16:55:16;;;;;;;4.50;2.30;;;22.20;59.20;;;;;;10412290;28;20099;-58
2022/06/16 17:00:21;;;;;;;4.10;2.17;;;22.20;59.30;;;;;;10419264;28;20037;-58
2022/06/16 17:05:21;;;;;;;4.18;2.45;;;22.20;59.40;;;;;;10417835;28;20065;-57
2022/06/16 17:10:22;;;;;;;4.47;2.75;;;22.20;59.10;;;;;;10417057;28;20489;-57
2022/06/16 17:15:23;;;;;;;9.93;3.70;;;22.20;58.60;;;;;;10419012;28;20033;-57
2022/06/16 17:20:25;;;;;;;5.53;2.53;;;22.20;57.80;;;;;;10418463;28;20029;-57
2022/06/16 17:25:26;;;;;;;3.58;2.70;;;22.20;58.90;;;;;;10432923;28;20061;-57
2022/06/16 17:30:28;;;;;;;8.23;2.92;;;22.20;59.10;;;;;;10413934;28;20486;-57
2022/06/16 17:35:41;;;;;;;5.57;2.63;;;22.20;59.20;;;;;;10412156;28;20049;-56
2022/06/16 17:40:42;;;;;;;13.40;3.20;;;22.30;59.40;;;;;;10410613;28;20072;-56
2022/06/16 17:45:43;;;;;;;8.23;3.20;;;22.30;59.40;;;;;;10416845;28;20029;-57
2022/06/16 17:50:44;;;;;;;5.32;3.25;;;22.30;59.40;;;;;;10416521;28;20485;-56
2022/06/16 18:01:05;;;;;;;6.85;2.70;;;22.30;59.00;;;;;;10414747;28;20045;-56
2022/06/16 18:06:10;;;;;;;8.23;2.63;;;22.30;59.10;;;;;;10414972;28;20030;-56
2022/06/16 18:11:12;;;;;;;6.03;2.88;;;22.30;58.80;;;;;;10413686;28;20031;-57
2022/06/16 18:16:18;;;;;;;5.32;3.08;;;22.30;58.70;;;;;;10414882;28;20171;-56
2022/06/16 18:21:33;;;;;;;5.80;3.33;;;22.30;58.30;;;;;;10414900;28;20398;-57
2022/06/16 18:26:49;;;;;;;6.05;2.70;;;22.40;58.70;;;;;;10413541;28;20046;-56
2022/06/16 18:31:50;;;;;;;6.30;3.30;;;22.30;58.90;;;;;;10412381;28;20041;-57
2022/06/16 18:36:51;;;;;;;3.65;2.92;;;22.30;58.80;;;;;;10414296;28;20045;-57
2022/06/16 18:41:57;;;;;;;7.47;3.17;;;22.30;58.70;;;;;;10406308;28;20370;-57
2022/06/16 18:47:06;;;;;;;7.80;2.85;;;22.30;58.30;;;;;;10413358;28;20060;-57
2022/06/16 18:52:25;;;;;;;6.95;3.22;;;22.30;58.30;;;;;;10417420;28;20021;-57
2022/06/16 18:57:30;;;;;;;6.25;2.92;;;22.30;58.30;;;;;;10413562;28;20072;-57
2022/06/16 19:02:35;;;;;;;3.83;2.75;;;22.30;57.70;;;;;;10413405;28;20120;-57
2022/06/16 19:07:36;;;;;;;5.97;3.15;;;22.30;57.20;;;;;;10411747;28;20116;-57
2022/06/16 19:12:37;;;;;;;3.60;3.00;;;22.30;57.60;;;;;;10413238;28;20100;-57
2022/06/16 19:17:59;;;;;;;6.13;3.35;;;22.30;57.20;;;;;;10411027;28;20036;-56
2022/06/16 19:23:04;;;;;;;6.68;3.80;;;22.30;56.70;;;;;;10408380;28;20684;-57
2022/06/16 19:28:05;;;;;;;4.75;3.80;;;22.30;56.60;;;;;;10409299;28;20044;-57
2022/06/16 19:33:11;;;;;;;5.63;4.18;;;22.30;57.00;;;;;;10411152;28;20025;-57
2022/06/16 19:38:25;;;;;;;6.47;3.67;;;22.30;57.20;;;;;;10413112;28;20501;-57
2022/06/16 19:54:04;;;;;;;4.10;3.03;;;22.30;57.00;;;;;;10413140;28;20037;-58
2022/06/16 19:59:05;;;;;;;3.90;2.92;;;22.30;57.10;;;;;;10410837;28;20458;-58
2022/06/16 20:04:06;;;;;;;3.95;3.13;;;22.30;57.30;;;;;;10411782;28;20121;-58
2022/06/16 20:09:06;;;;;;;4.30;3.30;;;22.20;57.60;;;;;;10411592;28;20041;-58
2022/06/16 20:14:07;;;;;;;3.83;3.42;;;22.30;57.70;;;;;;10410434;28;20030;-58
2022/06/16 20:19:08;;;;;;;4.30;3.40;;;22.30;57.90;;;;;;10411744;28;20045;-58
2022/06/16 20:24:09;;;;;;;3.53;3.03;;;22.20;58.00;;;;;;10411311;28;20041;-58
2022/06/16 20:29:10;;;;;;;4.72;3.50;;;22.20;58.20;;;;;;10410041;28;20572;-58
2022/06/16 20:34:19;;;;;;;5.32;3.03;;;22.20;58.30;;;;;;10415021;28;20043;-58
2022/06/16 20:39:20;;;;;;;5.22;3.05;;;22.20;58.30;;;;;;10416811;28;20033;-58
2022/06/16 20:44:23;;;;;;;3.88;2.97;;;22.20;58.30;;;;;;10416742;28;20061;-59
2022/06/16 20:49:32;;;;;;;4.07;3.20;;;22.20;58.50;;;;;;10419930;28;20702;-58
2022/06/16 20:54:33;;;;;;;4.30;2.70;;;22.20;58.60;;;;;;10418263;28;20116;-58
2022/06/16 21:04:53;;;;;;;4.78;3.00;;;22.20;58.70;;;;;;10419081;28;20076;-58
2022/06/16 21:09:53;;;;;;;3.08;2.55;;;22.20;58.70;;;;;;10403917;28;20466;-58
2022/06/16 21:14:57;;;;;;;6.00;3.53;;;22.20;58.80;;;;;;10417278;28;20029;-58
2022/06/16 21:19:59;;;;;;;4.10;2.97;;;22.20;58.90;;;;;;10417215;28;20109;-58
2022/06/16 21:24:59;;;;;;;3.33;2.60;;;22.20;58.90;;;;;;10417151;28;20029;-58
2022/06/16 21:30:02;;;;;;;3.90;3.15;;;22.20;58.90;;;;;;10418148;28;20064;-58
2022/06/16 21:35:05;;;;;;;4.10;3.40;;;22.20;58.90;;;;;;10417965;28;20175;-58
2022/06/16 21:40:08;;;;;;;3.50;2.55;;;22.20;59.00;;;;;;10414357;28;20037;-58
2022/06/16 21:45:11;;;;;;;4.88;3.80;;;22.20;59.00;;;;;;10414254;28;20446;-58
2022/06/16 21:50:41;;;;;;;4.22;2.90;;;22.20;59.00;;;;;;10420004;28;20034;-58
2022/06/16 21:55:43;;;;;;;4.22;3.33;;;22.20;58.90;;;;;;10414645;28;20378;-59
2022/06/16 22:00:43;;;;;;;5.05;3.03;;;22.20;59.00;;;;;;10416876;28;20029;-58
2022/06/16 22:05:45;;;;;;;4.30;3.33;;;22.20;59.00;;;;;;10416714;28;20567;-58
2022/06/16 22:12:20;;;;;;;3.38;3.08;;;22.20;59.00;;;;;;10416721;28;20040;-58
2022/06/16 22:16:11;;;;;;;3.53;2.78;;;22.20;59.00;;;;;;10416120;28;20037;-58
2022/06/16 22:21:18;;;;;;;3.88;3.20;;;22.20;59.00;;;;;;10415288;28;20049;-58
2022/06/16 22:26:30;;;;;;;3.58;2.80;;;22.20;59.10;;;;;;10415946;28;20033;-58
2022/06/16 22:31:38;;;;;;;3.75;3.08;;;22.10;59.00;;;;;;10414747;28;20028;-58
2022/06/16 22:36:42;;;;;;;3.73;3.10;;;22.10;59.00;;;;;;10415451;28;20129;-59
2022/06/16 22:41:45;;;;;;;5.03;2.75;;;22.10;59.00;;;;;;10409665;28;20037;-58
2022/06/16 22:46:48;;;;;;;4.45;3.15;;;22.10;59.00;;;;;;10414871;28;20037;-58
2022/06/16 22:51:54;;;;;;;4.00;3.45;;;22.10;59.00;;;;;;10415812;28;20363;-58
2022/06/16 22:56:55;;;;;;;4.70;3.50;;;22.10;59.10;;;;;;10414827;28;20041;-58
2022/06/16 23:01:58;;;;;;;5.47;3.33;;;22.10;59.70;;;;;;10413554;28;20056;-58
2022/06/16 23:06:59;;;;;;;4.07;3.30;;;22.10;59.00;;;;;;10413204;28;20029;-58
2022/06/16 23:11:59;;;;;;;4.00;2.95;;;22.10;59.00;;;;;;10413150;28;20079;-58
2022/06/16 23:17:03;;;;;;;5.00;2.95;;;22.10;59.00;;;;;;10412487;28;20039;-58
2022/06/16 23:22:13;;;;;;;3.95;3.45;;;22.10;59.10;;;;;;10412856;28;20079;-58
2022/06/16 23:27:22;;;;;;;3.78;3.38;;;22.10;59.10;;;;;;10412574;28;20041;-58
2022/06/16 23:32:24;;;;;;;4.55;2.97;;;22.10;59.10;;;;;;10413754;28;20365;-58
2022/06/16 23:37:30;;;;;;;4.80;3.38;;;22.10;59.10;;;;;;10413203;28;20045;-58
2022/06/16 23:42:31;;;;;;;4.18;3.20;;;22.10;59.10;;;;;;10413343;28;20043;-58
2022/06/16 23:52:54;;;;;;;3.90;3.30;;;22.10;59.20;;;;;;10404503;28;20184;-58
2022/06/16 23:57:55;;;;;;;4.03;3.47;;;22.00;59.10;;;;;;10412555;28;20065;-58
